Time;durP1;ratioP1;P1;durP2;ratioP2;P2;SDS_P1;SDS_P2;PMS_P1;PMS_P2;Temp;Humidity;BMP_temperature;BMP_pressure;BME280_temperature;BME280_humidity;BME280_pressure;Samples;Min_cycle;Max_cycle;Signal;HPM_P1;HPM_P2
2022/10/09 00:00:11;;;;;;;18.13;6.57;;;6.90;99.90;;;;;;5092329;28;20477;-74
2022/10/09 00:02:37;;;;;;;19.33;5.30;;;6.90;99.90;;;;;;5097937;28;21013;-74
2022/10/09 00:05:05;;;;;;;13.83;5.60;;;6.90;99.90;;;;;;5092548;28;20865;-74
2022/10/09 00:07:31;;;;;;;9.57;4.87;;;6.90;99.90;;;;;;5092210;28;20449;-74
2022/10/09 00:09:58;;;;;;;6.53;4.93;;;6.90;99.90;;;;;;5092322;28;20452;-74
2022/10/09 00:12:25;;;;;;;12.13;5.20;;;7.00;99.90;;;;;;5091639;28;20478;-74
2022/10/09 00:14:53;;;;;;;14.73;4.83;;;7.10;99.90;;;;;;5092213;28;20448;-74
2022/10/09 00:17:19;;;;;;;7.43;4.77;;;7.00;99.90;;;;;;5096369;28;20520;-74
2022/10/09 00:19:46;;;;;;;6.60;4.80;;;7.00;99.90;;;;;;5092251;28;20455;-74
2022/10/09 00:22:13;;;;;;;5.20;4.30;;;6.90;99.90;;;;;;5091804;28;20482;-74
2022/10/09 00:24:39;;;;;;;10.50;4.17;;;6.80;99.90;;;;;;5091935;28;20537;-74
2022/10/09 00:27:06;;;;;;;12.97;5.83;;;6.80;99.90;;;;;;5091933;28;21196;-74
2022/10/09 00:29:33;;;;;;;10.40;4.37;;;6.80;99.90;;;;;;5092703;28;20496;-74
2022/10/09 00:32:01;;;;;;;5.90;3.50;;;6.70;99.90;;;;;;5111935;28;20468;-74
2022/10/09 00:34:27;;;;;;;8.93;3.60;;;6.70;99.90;;;;;;5098870;28;20575;-76
2022/10/09 00:36:54;;;;;;;8.60;3.60;;;6.70;99.90;;;;;;5108476;28;20462;-76
2022/10/09 00:39:21;;;;;;;8.50;4.20;;;6.70;99.90;;;;;;5111715;28;20447;-76
2022/10/09 00:41:47;;;;;;;7.30;4.03;;;6.70;99.90;;;;;;5111854;28;20455;-76
2022/10/09 00:44:50;;;;;;;10.30;4.80;;;6.60;99.90;;;;;;5093015;28;20452;-77
2022/10/09 00:47:23;;;;;;;6.07;3.53;;;6.60;99.90;;;;;;5111194;28;20458;-76
2022/10/09 00:49:52;;;;;;;6.20;3.90;;;6.60;99.90;;;;;;5111394;28;20450;-76
2022/10/09 00:52:20;;;;;;;7.87;3.87;;;6.60;99.90;;;;;;5111623;28;20481;-76
2022/10/09 00:54:47;;;;;;;12.20;3.67;;;6.50;99.90;;;;;;5109905;28;20482;-76
2022/10/09 00:57:14;;;;;;;11.63;4.10;;;6.50;99.90;;;;;;5097441;28;20448;-76
2022/10/09 00:59:41;;;;;;;9.23;4.40;;;6.50;99.90;;;;;;5111928;28;20445;-76
2022/10/09 01:02:07;;;;;;;10.00;4.40;;;6.50;99.90;;;;;;5110821;28;20479;-75
2022/10/09 01:04:36;;;;;;;7.77;4.30;;;6.40;99.90;;;;;;5111610;28;20448;-75
2022/10/09 01:07:14;;;;;;;5.83;4.23;;;6.40;99.90;;;;;;5111472;28;20451;-77
2022/10/09 01:09:46;;;;;;;7.40;3.97;;;6.40;99.90;;;;;;5111973;28;20472;-76
2022/10/09 01:12:19;;;;;;;7.00;3.80;;;6.30;99.90;;;;;;5098446;28;20472;-76
2022/10/09 01:14:57;;;;;;;8.03;4.47;;;6.30;99.90;;;;;;5091282;28;20902;-76
2022/10/09 01:17:31;;;;;;;7.07;4.87;;;6.20;99.90;;;;;;5111263;28;20993;-76
2022/10/09 01:20:22;;;;;;;15.80;6.10;;;6.20;99.90;;;;;;5110061;28;20446;-76
2022/10/09 01:23:03;;;;;;;14.33;8.13;;;6.20;99.90;;;;;;5111674;28;20493;-76
2022/10/09 01:25:36;;;;;;;16.60;9.00;;;6.20;99.90;;;;;;5102124;28;20480;-76
2022/10/09 01:28:06;;;;;;;22.90;8.43;;;6.20;99.90;;;;;;5091643;28;20459;-75
2022/10/09 01:30:34;;;;;;;18.70;8.50;;;6.20;99.90;;;;;;5090856;28;20451;-74
2022/10/09 01:33:02;;;;;;;13.73;7.73;;;6.20;99.90;;;;;;5091175;28;20500;-76
2022/10/09 01:35:30;;;;;;;10.10;6.40;;;6.20;99.90;;;;;;5094268;28;20450;-75
2022/10/09 01:37:57;;;;;;;9.17;5.77;;;6.10;99.90;;;;;;5111336;28;20453;-74
2022/10/09 01:40:26;;;;;;;9.37;5.23;;;5.90;99.90;;;;;;5095313;28;20480;-76
2022/10/09 01:42:53;;;;;;;9.70;6.00;;;5.90;99.90;;;;;;5091371;28;20454;-76
2022/10/09 01:45:21;;;;;;;8.07;5.40;;;5.80;99.90;;;;;;5091260;28;20461;-76
2022/10/09 01:47:48;;;;;;;5.90;5.00;;;5.70;99.90;;;;;;5091213;28;20473;-76
2022/10/09 01:50:21;;;;;;;9.27;5.20;;;5.70;99.90;;;;;;5090819;28;20451;-76
2022/10/09 01:52:51;;;;;;;7.43;4.87;;;5.70;99.90;;;;;;5093795;28;20447;-76
2022/10/09 01:55:32;;;;;;;6.87;4.77;;;5.70;99.90;;;;;;5105279;28;20482;-76
2022/10/09 01:58:04;;;;;;;8.17;5.77;;;5.70;99.90;;;;;;5109840;28;20460;-77
2022/10/09 02:00:36;;;;;;;12.30;6.77;;;5.70;99.90;;;;;;5111120;28;20452;-76
2022/10/09 02:03:06;;;;;;;10.40;6.40;;;5.60;99.90;;;;;;5107314;28;20879;-76
2022/10/09 02:05:33;;;;;;;11.27;6.27;;;5.60;99.90;;;;;;5094463;28;20461;-74
2022/10/09 02:08:00;;;;;;;12.30;6.40;;;5.60;99.90;;;;;;5101913;28;20484;-74
2022/10/09 02:10:27;;;;;;;10.83;6.03;;;5.60;99.90;;;;;;5094281;28;20460;-74
2022/10/09 02:12:57;;;;;;;12.60;6.53;;;5.60;99.90;;;;;;5094633;28;20450;-74
2022/10/09 02:15:30;;;;;;;10.67;6.73;;;5.60;99.90;;;;;;5094289;28;20481;-74
2022/10/09 02:18:05;;;;;;;14.10;6.90;;;5.60;99.90;;;;;;5094376;28;20813;-74
2022/10/09 02:20:35;;;;;;;11.00;6.40;;;5.60;99.90;;;;;;5094403;28;20453;-74
2022/10/09 02:23:06;;;;;;;11.37;6.80;;;5.60;99.90;;;;;;5110169;28;21119;-74
2022/10/09 02:25:34;;;;;;;13.47;6.30;;;5.60;99.90;;;;;;5094279;28;20466;-74
2022/10/09 02:28:01;;;;;;;7.93;6.23;;;5.50;99.90;;;;;;5094131;28;20865;-74
2022/10/09 02:30:37;;;;;;;9.20;6.47;;;5.50;99.90;;;;;;5093886;28;20465;-74
2022/10/09 02:33:05;;;;;;;13.23;7.70;;;5.50;99.90;;;;;;5094400;28;20449;-74
2022/10/09 02:35:32;;;;;;;14.80;7.43;;;5.50;99.90;;;;;;5106045;28;20449;-74
2022/10/09 02:37:59;;;;;;;12.27;7.53;;;5.40;99.90;;;;;;5114354;28;20457;-74
2022/10/09 02:40:26;;;;;;;14.17;6.30;;;5.40;99.90;;;;;;5113675;27;20449;-74
2022/10/09 02:42:52;;;;;;;9.57;6.80;;;5.40;99.90;;;;;;5108880;27;20957;-74
2022/10/09 02:45:19;;;;;;;10.90;8.50;;;5.40;99.90;;;;;;5113571;28;20451;-74
2022/10/09 02:47:46;;;;;;;14.43;8.13;;;5.30;99.90;;;;;;5093960;28;20450;-74
2022/10/09 02:50:14;;;;;;;15.57;8.17;;;5.30;99.90;;;;;;5107365;28;20448;-74
2022/10/09 02:52:40;;;;;;;10.03;7.77;;;5.20;99.90;;;;;;5113989;28;20467;-74
2022/10/09 02:55:08;;;;;;;9.00;7.80;;;5.20;99.90;;;;;;5104337;27;20490;-74
2022/10/09 02:57:34;;;;;;;9.50;7.10;;;5.20;99.90;;;;;;5104006;28;20813;-74
2022/10/09 03:00:01;;;;;;;10.97;7.20;;;5.20;99.90;;;;;;5113993;28;20813;-74
2022/10/09 03:02:28;;;;;;;8.40;7.20;;;5.20;99.90;;;;;;5113800;28;20474;-74
2022/10/09 03:04:54;;;;;;;11.87;7.60;;;5.20;99.90;;;;;;5113878;28;20444;-74
2022/10/09 03:07:22;;;;;;;14.43;7.03;;;5.30;99.90;;;;;;5110596;28;20454;-74
2022/10/09 03:09:49;;;;;;;11.77;6.87;;;5.20;99.90;;;;;;5113673;28;20452;-74
2022/10/09 03:12:20;;;;;;;14.00;6.90;;;5.20;99.90;;;;;;5108375;28;20537;-74
2022/10/09 03:14:46;;;;;;;7.67;6.87;;;5.20;99.90;;;;;;5113477;28;20503;-74
2022/10/09 03:17:13;;;;;;;15.23;6.63;;;5.20;99.90;;;;;;5102553;27;20956;-74
2022/10/09 03:19:40;;;;;;;13.53;6.77;;;5.20;99.90;;;;;;5113488;28;20867;-74
2022/10/09 03:22:06;;;;;;;8.57;6.33;;;5.20;99.90;;;;;;5112340;28;20479;-74
2022/10/09 03:24:34;;;;;;;12.93;6.47;;;5.10;99.90;;;;;;5111428;27;20447;-76
2022/10/09 03:27:01;;;;;;;8.47;6.40;;;5.10;99.90;;;;;;5097191;28;20447;-75
2022/10/09 03:29:28;;;;;;;14.33;7.40;;;5.10;99.90;;;;;;5113610;27;20517;-75
2022/10/09 03:31:54;;;;;;;12.10;7.87;;;5.10;99.90;;;;;;5113067;28;20467;-75
2022/10/09 03:34:21;;;;;;;11.80;7.20;;;5.10;99.90;;;;;;5112263;28;21004;-75
2022/10/09 03:36:48;;;;;;;13.40;8.77;;;5.10;99.90;;;;;;5101716;27;20458;-75
2022/10/09 03:39:14;;;;;;;12.70;7.67;;;5.10;99.90;;;;;;5100899;28;20455;-75
2022/10/09 03:41:42;;;;;;;18.03;8.40;;;5.20;99.90;;;;;;5112206;28;20476;-75
2022/10/09 03:44:09;;;;;;;20.50;7.57;;;5.20;99.90;;;;;;5113218;28;20451;-75
2022/10/09 03:46:36;;;;;;;11.90;8.07;;;5.20;99.90;;;;;;5103797;28;20516;-75
2022/10/09 03:49:02;;;;;;;10.30;7.40;;;5.20;99.90;;;;;;5112223;28;21007;-75
2022/10/09 03:51:29;;;;;;;13.13;7.70;;;5.20;99.90;;;;;;5112949;28;20474;-75
2022/10/09 03:53:56;;;;;;;12.40;7.40;;;5.20;99.90;;;;;;5112146;28;20529;-75
2022/10/09 03:56:22;;;;;;;15.53;7.40;;;5.20;99.90;;;;;;5106288;28;20457;-75
2022/10/09 03:58:50;;;;;;;12.30;8.60;;;5.20;99.90;;;;;;5092619;28;20452;-75
2022/10/09 04:01:17;;;;;;;11.33;7.60;;;5.20;99.90;;;;;;5091754;28;20477;-75
2022/10/09 04:03:43;;;;;;;15.13;8.57;;;5.20;99.90;;;;;;5092247;28;20441;-75
2022/10/09 04:06:11;;;;;;;15.23;8.17;;;5.20;99.90;;;;;;5092381;28;20450;-75
2022/10/09 04:08:37;;;;;;;13.43;9.40;;;5.10;99.90;;;;;;5092864;28;20447;-75
2022/10/09 04:11:04;;;;;;;15.60;9.33;;;5.10;99.90;;;;;;5092228;28;20479;-75
2022/10/09 04:13:31;;;;;;;21.33;9.80;;;5.10;99.90;;;;;;5102877;28;20457;-75
2022/10/09 04:15:59;;;;;;;12.43;9.27;;;5.10;99.90;;;;;;5108747;28;20485;-75
2022/10/09 04:18:26;;;;;;;15.53;9.20;;;5.10;99.90;;;;;;5108357;28;20945;-75
2022/10/09 04:20:54;;;;;;;11.67;9.33;;;5.00;99.90;;;;;;5112357;28;20462;-75
2022/10/09 04:23:24;;;;;;;14.70;9.57;;;5.00;99.90;;;;;;5110984;28;20461;-75
2022/10/09 04:25:53;;;;;;;13.10;9.87;;;4.90;99.90;;;;;;5099785;28;20477;-75
2022/10/09 04:28:20;;;;;;;13.00;8.70;;;4.90;99.90;;;;;;5111617;28;20537;-76
2022/10/09 04:30:46;;;;;;;12.40;8.93;;;4.80;99.90;;;;;;5111432;28;20530;-75
2022/10/09 04:33:15;;;;;;;12.10;8.43;;;4.80;99.90;;;;;;5112512;28;20458;-75
2022/10/09 04:35:42;;;;;;;9.00;7.80;;;4.70;99.90;;;;;;5108033;28;20487;-75
2022/10/09 04:38:08;;;;;;;9.37;8.37;;;4.70;99.90;;;;;;5094058;28;20553;-76
2022/10/09 04:40:35;;;;;;;14.63;8.60;;;4.70;99.90;;;;;;5091627;28;20475;-75
2022/10/09 04:43:02;;;;;;;8.70;6.90;;;4.70;99.90;;;;;;5091735;28;20455;-75
2022/10/09 04:45:29;;;;;;;14.63;7.70;;;4.70;99.90;;;;;;5091585;28;20702;-75
2022/10/09 04:47:55;;;;;;;13.60;7.47;;;4.70;99.90;;;;;;5108999;28;20454;-75
2022/10/09 04:50:23;;;;;;;9.70;7.57;;;4.70;99.90;;;;;;5108360;28;20456;-76
2022/10/09 04:52:50;;;;;;;8.97;7.10;;;4.70;99.90;;;;;;5091610;28;20841;-75
2022/10/09 04:55:17;;;;;;;12.40;7.10;;;4.70;99.90;;;;;;5091658;28;20478;-76
2022/10/09 04:57:43;;;;;;;14.07;7.80;;;4.70;99.90;;;;;;5091563;28;20451;-75
2022/10/09 05:00:12;;;;;;;10.20;7.73;;;4.60;99.90;;;;;;5091683;28;20455;-76
2022/10/09 05:02:38;;;;;;;9.70;7.63;;;4.60;99.90;;;;;;5091464;28;20495;-76
2022/10/09 05:05:05;;;;;;;11.90;7.87;;;4.50;99.90;;;;;;5094350;28;20446;-76
2022/10/09 05:07:33;;;;;;;9.47;7.77;;;4.50;99.90;;;;;;5100600;28;20455;-76
2022/10/09 05:10:00;;;;;;;14.83;9.13;;;4.60;99.90;;;;;;5105143;28;20456;-74
2022/10/09 05:12:27;;;;;;;13.40;7.73;;;4.60;99.90;;;;;;5098409;28;20473;-74
2022/10/09 05:14:53;;;;;;;13.83;7.93;;;4.60;99.90;;;;;;5091229;28;20481;-75
2022/10/09 05:17:20;;;;;;;13.00;8.20;;;4.60;99.90;;;;;;5098358;28;20459;-76
2022/10/09 05:19:47;;;;;;;15.47;8.70;;;4.60;99.90;;;;;;5105715;28;20452;-76
2022/10/09 05:22:13;;;;;;;14.30;9.40;;;4.60;99.90;;;;;;5111396;28;20467;-76
2022/10/09 05:24:41;;;;;;;16.47;10.43;;;4.60;99.90;;;;;;5111641;28;20443;-76
2022/10/09 05:27:08;;;;;;;13.57;8.80;;;4.60;99.90;;;;;;5108171;28;20477;-76
2022/10/09 05:29:35;;;;;;;10.87;8.20;;;4.60;99.90;;;;;;5091132;28;20868;-75
2022/10/09 05:32:01;;;;;;;12.70;9.13;;;4.60;99.90;;;;;;5091294;28;20836;-79
2022/10/09 05:34:28;;;;;;;15.50;8.90;;;4.60;99.90;;;;;;5094777;28;20520;-79
2022/10/09 05:36:55;;;;;;;12.53;8.90;;;4.60;99.90;;;;;;5101478;28;20460;-79
2022/10/09 05:39:22;;;;;;;10.47;8.47;;;4.60;99.90;;;;;;5091437;28;20451;-79
2022/10/09 05:41:50;;;;;;;11.67;8.60;;;4.70;99.90;;;;;;5100719;28;20502;-79
2022/10/09 05:44:16;;;;;;;15.43;9.53;;;4.70;99.90;;;;;;5115796;27;20456;-79
2022/10/09 05:46:43;;;;;;;16.30;9.37;;;4.70;99.90;;;;;;5104185;28;20881;-79
2022/10/09 05:49:10;;;;;;;28.70;8.70;;;4.70;99.90;;;;;;5105167;28;20455;-79
2022/10/09 05:51:41;;;;;;;12.03;7.80;;;4.80;99.90;;;;;;5102215;28;20478;-79
2022/10/09 05:54:12;;;;;;;12.43;8.00;;;4.80;99.90;;;;;;5107928;28;20541;-79
2022/10/09 05:56:39;;;;;;;9.50;7.37;;;4.70;99.90;;;;;;5108968;28;20494;-79
2022/10/09 05:59:09;;;;;;;13.57;6.93;;;4.70;99.90;;;;;;5099690;28;20828;-80
2022/10/09 06:01:38;;;;;;;10.03;6.60;;;4.70;99.90;;;;;;5094311;28;21000;-79
2022/10/09 06:04:08;;;;;;;8.23;7.07;;;4.70;99.90;;;;;;5094585;28;20481;-79
2022/10/09 06:06:37;;;;;;;8.97;6.67;;;4.70;99.90;;;;;;5100032;28;20516;-79
2022/10/09 06:09:05;;;;;;;8.80;7.00;;;4.70;99.90;;;;;;5114414;28;20947;-79
2022/10/09 06:11:33;;;;;;;9.63;6.93;;;4.70;99.90;;;;;;5114976;28;20491;-79
2022/10/09 06:14:03;;;;;;;10.33;7.17;;;4.70;99.90;;;;;;5113716;28;20849;-80
2022/10/09 06:16:32;;;;;;;15.10;7.67;;;4.80;99.90;;;;;;5100933;28;20483;-79
2022/10/09 06:18:59;;;;;;;9.93;7.10;;;5.00;99.90;;;;;;5114855;28;20659;-79
2022/10/09 06:21:27;;;;;;;7.97;6.97;;;5.40;99.90;;;;;;5114923;27;20474;-76
2022/10/09 06:23:56;;;;;;;10.93;7.73;;;5.90;99.90;;;;;;5114818;28;20448;-76
2022/10/09 06:26:24;;;;;;;9.07;7.50;;;6.50;99.90;;;;;;5099653;28;20458;-76
2022/10/09 06:28:52;;;;;;;8.00;6.43;;;7.10;99.90;;;;;;5114476;28;20862;-79
2022/10/09 06:31:20;;;;;;;8.23;7.43;;;7.70;99.90;;;;;;5114027;28;20480;-75
2022/10/09 06:33:50;;;;;;;8.47;6.10;;;8.20;99.90;;;;;;5114369;27;20442;-76
2022/10/09 06:36:18;;;;;;;8.43;5.63;;;8.70;99.90;;;;;;5100269;28;20995;-75
2022/10/09 06:38:46;;;;;;;7.53;5.93;;;9.10;99.90;;;;;;5093939;28;20439;-76
2022/10/09 06:41:14;;;;;;;6.30;5.70;;;9.50;99.90;;;;;;5093969;28;20814;-74
2022/10/09 06:43:42;;;;;;;9.73;5.50;;;10.00;99.90;;;;;;5093962;28;20454;-74
2022/10/09 06:46:11;;;;;;;7.10;6.00;;;10.40;99.90;;;;;;5109078;28;20451;-74
2022/10/09 06:48:39;;;;;;;7.03;5.93;;;10.90;99.90;;;;;;5108365;28;20541;-74
2022/10/09 06:51:10;;;;;;;13.60;5.63;;;11.40;99.90;;;;;;5113360;28;20470;-76
2022/10/09 06:53:38;;;;;;;8.33;6.10;;;11.90;99.90;;;;;;5113382;28;21188;-75
2022/10/09 06:56:05;;;;;;;7.63;5.40;;;12.20;99.90;;;;;;5097958;28;20479;-77
2022/10/09 06:58:32;;;;;;;7.73;5.40;;;12.50;99.90;;;;;;5093613;28;20944;-76
2022/10/09 07:01:04;;;;;;;10.03;6.00;;;12.80;99.90;;;;;;5093190;28;20540;-77
2022/10/09 07:03:30;;;;;;;6.00;5.33;;;13.00;99.90;;;;;;5114128;28;20499;-77
2022/10/09 07:06:08;;;;;;;6.90;5.03;;;13.30;99.90;;;;;;5113630;28;20469;-75
2022/10/09 07:08:35;;;;;;;5.73;5.00;;;13.50;99.90;;;;;;5095311;28;20447;-75
2022/10/09 07:11:08;;;;;;;5.20;4.70;;;13.50;99.90;;;;;;5112852;27;20466;-75
2022/10/09 07:13:35;;;;;;;7.00;4.97;;;13.70;99.90;;;;;;5093759;28;20485;-77
2022/10/09 07:16:02;;;;;;;7.17;5.00;;;13.90;99.90;;;;;;5102164;28;20529;-77
2022/10/09 07:18:28;;;;;;;6.53;4.57;;;14.10;99.90;;;;;;5094001;28;20454;-77
2022/10/09 07:20:55;;;;;;;5.23;4.73;;;14.50;99.90;;;;;;5092561;28;21036;-76
2022/10/09 07:23:23;;;;;;;5.73;4.60;;;14.70;99.90;;;;;;5093183;28;21002;-76
2022/10/09 07:25:50;;;;;;;4.50;4.10;;;14.90;99.90;;;;;;5093693;28;20429;-79
2022/10/09 07:28:17;;;;;;;7.80;5.30;;;15.00;99.90;;;;;;5112740;28;20205;-80
2022/10/09 07:30:43;;;;;;;5.20;4.70;;;15.20;99.90;;;;;;5097406;28;21040;-79
2022/10/09 07:33:10;;;;;;;5.60;5.10;;;15.10;99.90;;;;;;5093023;28;20885;-79
2022/10/09 07:35:37;;;;;;;5.40;4.90;;;15.00;99.90;;;;;;5093182;28;20487;-80
2022/10/09 07:38:03;;;;;;;6.20;4.83;;;14.90;99.90;;;;;;5108933;28;20451;-79
2022/10/09 07:40:33;;;;;;;5.83;4.90;;;14.80;99.90;;;;;;5101768;28;20542;-79
2022/10/09 07:43:00;;;;;;;6.13;5.53;;;14.60;99.90;;;;;;5093770;28;20448;-79
2022/10/09 07:45:27;;;;;;;6.33;4.83;;;14.30;99.90;;;;;;5113247;28;20458;-79
2022/10/09 07:47:54;;;;;;;12.43;5.77;;;14.10;99.90;;;;;;5100844;27;20451;-79
2022/10/09 07:50:20;;;;;;;5.70;4.97;;;13.80;99.90;;;;;;5113237;28;20446;-78
2022/10/09 07:52:47;;;;;;;7.03;4.47;;;13.60;99.90;;;;;;5112153;28;20459;-79
2022/10/09 07:55:14;;;;;;;8.47;5.40;;;13.50;99.90;;;;;;5100156;28;20486;-79
2022/10/09 07:57:42;;;;;;;5.70;5.23;;;13.30;99.90;;;;;;5095602;28;20456;-79
2022/10/09 08:00:10;;;;;;;7.60;5.03;;;13.10;99.90;;;;;;5092740;28;20516;-80
2022/10/09 08:02:36;;;;;;;10.10;5.00;;;13.00;99.90;;;;;;5092152;28;20482;-77
2022/10/09 08:05:04;;;;;;;6.85;4.95;;;13.00;99.90;;;;;;5091564;28;20452;-76
2022/10/09 08:07:30;;;;;;;6.87;5.03;;;12.80;99.90;;;;;;5094105;28;20216;-76
2022/10/09 08:09:57;;;;;;;7.07;5.20;;;12.90;99.90;;;;;;5105414;28;20446;-76
2022/10/09 08:12:23;;;;;;;5.70;5.10;;;13.10;99.90;;;;;;5111688;28;20998;-76
2022/10/09 08:14:51;;;;;;;6.57;4.70;;;13.20;99.90;;;;;;5112807;28;20457;-77
2022/10/09 08:17:18;;;;;;;4.70;4.40;;;13.40;99.90;;;;;;5104403;28;20491;-78
2022/10/09 08:19:45;;;;;;;5.03;4.50;;;13.70;99.90;;;;;;5091744;28;20480;-77
2022/10/09 08:22:11;;;;;;;5.40;4.43;;;14.10;99.90;;;;;;5095093;28;20897;-77
2022/10/09 08:24:38;;;;;;;6.80;4.50;;;14.30;99.90;;;;;;5104837;28;20455;-76
2022/10/09 08:27:05;;;;;;;4.67;4.27;;;14.30;99.90;;;;;;5102154;28;20536;-77
2022/10/09 08:29:32;;;;;;;5.10;4.20;;;14.50;99.90;;;;;;5100326;28;20458;-75
2022/10/09 08:32:00;;;;;;;4.47;4.03;;;14.70;99.90;;;;;;5099820;28;20482;-73
2022/10/09 08:34:27;;;;;;;5.30;3.70;;;14.80;99.90;;;;;;5092126;28;20459;-75
2022/10/09 08:36:54;;;;;;;6.70;4.20;;;15.20;99.90;;;;;;5091674;28;20483;-76
2022/10/09 08:39:20;;;;;;;5.13;4.47;;;15.80;99.90;;;;;;5104478;28;20429;-77
2022/10/09 08:41:49;;;;;;;6.63;4.40;;;15.80;99.90;;;;;;5111453;28;20470;-77
2022/10/09 08:44:24;;;;;;;5.07;4.20;;;15.50;99.90;;;;;;5091997;28;20440;-75
2022/10/09 08:47:02;;;;;;;7.23;4.10;;;15.80;99.90;;;;;;5094650;28;20452;-73
2022/10/09 08:49:36;;;;;;;6.23;4.00;;;16.10;99.90;;;;;;5111819;28;20449;-72
2022/10/09 08:52:16;;;;;;;8.33;4.10;;;16.60;99.90;;;;;;5094788;27;20469;-70
2022/10/09 08:54:43;;;;;;;12.27;3.87;;;17.00;99.90;;;;;;5112297;28;20485;-71
2022/10/09 08:57:13;;;;;;;10.33;3.63;;;17.60;99.90;;;;;;5111115;28;20491;-73
2022/10/09 08:59:40;;;;;;;4.70;3.30;;;17.90;99.90;;;;;;5112142;28;20474;-71
2022/10/09 09:02:27;;;;;;;5.53;3.70;;;18.10;99.90;;;;;;5110049;28;20486;-72
2022/10/09 09:05:04;;;;;;;5.82;3.05;;;18.20;99.90;;;;;;5090972;28;21001;-80
2022/10/09 09:07:39;;;;;;;9.18;3.75;;;18.40;99.90;;;;;;5090905;28;20504;-75
2022/10/09 09:10:15;;;;;;;5.43;2.70;;;17.90;99.90;;;;;;5090461;28;20444;-77
2022/10/09 09:12:49;;;;;;;6.50;3.50;;;17.80;99.90;;;;;;5104331;28;20228;-79
2022/10/09 09:15:30;;;;;;;6.07;3.40;;;17.60;99.90;;;;;;5112469;28;20450;-73
2022/10/09 09:18:14;;;;;;;3.50;3.00;;;17.60;99.90;;;;;;5114779;28;20417;-74
2022/10/09 09:20:51;;;;;;;4.53;3.30;;;18.00;99.90;;;;;;5103101;28;20487;-78
2022/10/09 09:23:18;;;;;;;8.07;3.17;;;18.10;99.90;;;;;;5106590;28;20421;-73
2022/10/09 09:25:45;;;;;;;5.67;3.00;;;18.10;99.90;;;;;;5107861;28;20446;-76
2022/10/09 09:28:17;;;;;;;3.60;3.07;;;18.00;99.90;;;;;;5102197;28;20451;-74
2022/10/09 09:30:48;;;;;;;6.10;3.03;;;18.10;99.90;;;;;;5095035;28;20518;-74
2022/10/09 09:33:23;;;;;;;10.07;3.50;;;18.30;99.90;;;;;;5095618;28;20451;-74
2022/10/09 09:35:58;;;;;;;3.83;3.27;;;18.40;99.90;;;;;;5095645;28;20470;-74
2022/10/09 09:38:25;;;;;;;4.23;3.23;;;18.30;99.90;;;;;;5098144;28;20451;-74
2022/10/09 09:40:53;;;;;;;6.83;3.90;;;17.90;99.90;;;;;;5094871;28;20825;-75
2022/10/09 09:43:22;;;;;;;5.50;3.70;;;17.50;99.90;;;;;;5095409;28;20437;-81
2022/10/09 09:45:52;;;;;;;9.90;3.57;;;17.80;99.90;;;;;;5095395;28;20425;-75
2022/10/09 09:48:27;;;;;;;5.67;2.93;;;18.00;99.90;;;;;;5098469;28;20454;-74
2022/10/09 09:50:54;;;;;;;5.97;2.97;;;18.20;99.90;;;;;;5110346;28;20498;-76
2022/10/09 09:53:27;;;;;;;6.00;3.27;;;18.30;99.90;;;;;;5115638;28;20432;-76
2022/10/09 09:55:55;;;;;;;5.70;3.53;;;18.30;99.90;;;;;;5115404;28;20457;-74
2022/10/09 09:58:22;;;;;;;5.23;3.30;;;18.60;99.90;;;;;;5101985;28;20453;-75
2022/10/09 10:00:57;;;;;;;6.33;3.20;;;18.40;99.90;;;;;;5113846;28;20462;-75
2022/10/09 10:03:25;;;;;;;6.90;3.00;;;18.70;99.90;;;;;;5113876;28;20424;-79
2022/10/09 10:05:53;;;;;;;5.60;4.00;;;18.80;99.90;;;;;;5097556;28;20437;-74
2022/10/09 10:08:25;;;;;;;5.40;4.23;;;19.00;99.90;;;;;;5108882;28;20429;-75
2022/10/09 10:10:53;;;;;;;6.37;3.63;;;19.20;99.90;;;;;;5114385;28;20519;-76
2022/10/09 10:13:22;;;;;;;10.57;3.13;;;19.40;99.90;;;;;;5115107;28;20446;-74
2022/10/09 10:15:52;;;;;;;10.63;4.37;;;19.60;99.90;;;;;;5102321;28;20426;-74
2022/10/09 10:18:20;;;;;;;39.00;15.33;;;19.80;99.90;;;;;;5108732;28;20451;-73
2022/10/09 10:20:50;;;;;;;19.53;7.20;;;19.90;99.90;;;;;;5114825;28;20549;-77
2022/10/09 10:23:23;;;;;;;5.40;3.20;;;19.70;99.90;;;;;;5108635;28;20430;-75
2022/10/09 10:25:53;;;;;;;3.33;3.00;;;19.40;99.90;;;;;;5104195;28;20454;-75
2022/10/09 10:28:26;;;;;;;26.43;12.67;;;19.00;99.90;;;;;;5101724;28;20459;-75
2022/10/09 10:30:55;;;;;;;7.00;3.23;;;18.90;99.90;;;;;;5107519;28;20461;-74
2022/10/09 10:33:27;;;;;;;8.93;3.70;;;19.20;99.90;;;;;;5103025;28;20452;-79
2022/10/09 10:35:56;;;;;;;7.60;2.73;;;19.50;99.90;;;;;;5094186;28;20448;-76
2022/10/09 10:38:27;;;;;;;6.23;3.03;;;19.70;99.90;;;;;;5107105;28;20447;-81
2022/10/09 10:40:59;;;;;;;3.77;2.70;;;19.70;99.90;;;;;;5114406;27;20477;-79
2022/10/09 10:43:35;;;;;;;6.47;3.23;;;19.80;99.90;;;;;;5105558;28;20437;-78
2022/10/09 10:46:10;;;;;;;8.20;3.63;;;20.00;99.90;;;;;;5101202;27;20463;-73
2022/10/09 10:48:40;;;;;;;8.00;3.30;;;20.20;99.90;;;;;;5095341;28;20472;-79
2022/10/09 10:51:26;;;;;;;7.40;3.03;;;20.30;99.90;;;;;;5112472;28;20506;-72
2022/10/09 10:54:08;;;;;;;2.73;2.53;;;20.30;99.90;;;;;;5094053;28;20512;-76
2022/10/09 10:56:40;;;;;;;7.67;3.23;;;20.70;99.90;;;;;;5099893;28;20486;-76
2022/10/09 10:59:28;;;;;;;6.10;2.33;;;20.50;99.90;;;;;;5105209;28;20963;-74
2022/10/09 11:02:25;;;;;;;6.30;2.77;;;20.10;99.90;;;;;;5101551;28;20472;-79
2022/10/09 11:04:58;;;;;;;4.23;2.30;;;19.40;99.90;;;;;;5093842;28;20475;-84
2022/10/09 11:07:30;;;;;;;5.77;2.77;;;19.20;99.90;;;;;;5101785;28;20444;-78
2022/10/09 11:10:05;;;;;;;8.50;2.60;;;19.00;99.90;;;;;;5093778;28;20463;-77
2022/10/09 11:12:39;;;;;;;5.07;2.60;;;18.50;99.90;;;;;;5107584;28;20567;-77
2022/10/09 11:15:15;;;;;;;8.93;2.97;;;18.20;99.90;;;;;;5111745;27;20432;-76
2022/10/09 11:17:54;;;;;;;6.77;2.20;;;18.50;99.90;;;;;;5106946;28;20516;-77
2022/10/09 11:20:47;;;;;;;4.03;2.43;;;18.40;99.90;;;;;;5100463;28;20994;-77
2022/10/09 11:23:26;;;;;;;3.53;2.40;;;18.00;99.90;;;;;;5107383;28;20452;-80
2022/10/09 11:26:01;;;;;;;6.97;2.87;;;18.20;99.90;;;;;;5113674;28;20432;-75
2022/10/09 11:28:32;;;;;;;4.13;2.30;;;18.20;99.90;;;;;;5111872;28;20425;-75
2022/10/09 11:31:05;;;;;;;7.40;2.80;;;18.60;99.90;;;;;;5113200;28;20468;-75
2022/10/09 11:33:38;;;;;;;3.70;2.67;;;18.80;99.90;;;;;;5112652;28;20421;-74
2022/10/09 11:36:12;;;;;;;4.90;2.40;;;18.50;99.90;;;;;;5093020;28;20414;-75
2022/10/09 11:38:46;;;;;;;8.30;3.00;;;18.50;99.90;;;;;;5104978;28;20436;-75
2022/10/09 11:41:13;;;;;;;7.80;2.80;;;18.40;99.90;;;;;;5113255;28;20478;-74
2022/10/09 11:43:54;;;;;;;4.13;2.00;;;18.50;99.90;;;;;;5111403;28;20482;-75
2022/10/09 11:46:30;;;;;;;6.67;2.60;;;18.50;99.90;;;;;;5112992;28;20507;-74
2022/10/09 11:49:07;;;;;;;4.60;2.43;;;18.70;99.90;;;;;;5109249;28;20429;-74
2022/10/09 11:51:43;;;;;;;3.87;2.10;;;18.80;99.90;;;;;;5112710;28;20465;-74
2022/10/09 11:54:14;;;;;;;8.90;2.80;;;18.60;99.90;;;;;;5113365;28;20424;-80
2022/10/09 11:56:52;;;;;;;5.43;2.83;;;18.50;99.90;;;;;;5113134;28;20486;-77
2022/10/09 11:59:22;;;;;;;3.80;2.50;;;18.30;99.90;;;;;;5094075;28;20434;-80
2022/10/09 12:01:49;;;;;;;5.43;1.85;;;18.40;99.90;;;;;;5094721;28;20804;-79
2022/10/09 12:04:23;;;;;;;6.33;2.67;;;18.40;99.90;;;;;;5103793;28;20205;-76
2022/10/09 12:06:53;;;;;;;3.20;2.30;;;18.30;99.90;;;;;;5092734;28;20776;-76
2022/10/09 12:09:24;;;;;;;9.23;2.30;;;18.20;99.90;;;;;;5110690;28;20425;-75
2022/10/09 12:11:58;;;;;;;3.37;2.20;;;18.30;99.90;;;;;;5112203;28;20486;-74
2022/10/09 12:14:27;;;;;;;4.60;2.37;;;18.30;99.90;;;;;;5112712;28;20965;-74
2022/10/09 12:16:54;;;;;;;6.57;2.70;;;18.20;99.90;;;;;;5099583;28;20487;-76
2022/10/09 12:19:24;;;;;;;5.13;2.20;;;18.10;99.90;;;;;;5110017;28;20875;-74
2022/10/09 12:21:57;;;;;;;4.80;2.05;;;18.10;99.90;;;;;;5111289;28;20431;-73
2022/10/09 12:24:27;;;;;;;4.72;2.30;;;18.20;99.90;;;;;;5112009;28;20977;-72
2022/10/09 12:26:56;;;;;;;3.83;2.33;;;18.10;99.90;;;;;;5109966;28;20952;-75
2022/10/09 12:29:30;;;;;;;2.63;2.37;;;18.00;99.90;;;;;;5112247;28;20444;-73
2022/10/09 12:32:01;;;;;;;3.87;2.70;;;18.10;99.90;;;;;;5112156;28;20474;-74
2022/10/09 12:34:31;;;;;;;4.90;2.80;;;18.40;99.90;;;;;;5099873;28;20944;-72
2022/10/09 12:37:10;;;;;;;5.90;2.80;;;18.50;99.90;;;;;;5091676;28;20465;-73
2022/10/09 12:39:40;;;;;;;2.80;2.60;;;18.50;99.90;;;;;;5109800;28;20417;-76
2022/10/09 12:42:13;;;;;;;5.28;2.10;;;18.50;99.90;;;;;;5097869;28;20427;-74
2022/10/09 12:44:40;;;;;;;7.10;3.10;;;18.70;99.90;;;;;;5092016;28;20220;-75
2022/10/09 12:47:12;;;;;;;5.23;2.20;;;19.10;99.90;;;;;;5091754;28;20422;-74
2022/10/09 12:49:39;;;;;;;3.97;2.17;;;19.60;99.90;;;;;;5111695;28;20454;-77
2022/10/09 12:52:14;;;;;;;7.33;2.33;;;19.70;99.90;;;;;;5111741;28;20867;-75
2022/10/09 12:54:44;;;;;;;4.10;2.70;;;19.80;99.90;;;;;;5111281;28;20437;-71
2022/10/09 12:57:14;;;;;;;4.87;2.30;;;19.60;99.90;;;;;;5091743;28;20483;-74
2022/10/09 12:59:43;;;;;;;3.30;2.10;;;19.60;99.90;;;;;;5091679;28;20447;-75